sensor_id;sensor_type;location;lat;lon;timestamp;pressure;altitude;pressure_sealevel;temperature;humidity
59588;BME280;45412;54.472;18.464;2022-11-24T00:01:34;99349.06;;;-1.62;100.00
59588;BME280;45412;54.472;18.464;2022-11-24T00:04:22;99347.98;;;-1.56;100.00
59588;BME280;45412;54.472;18.464;2022-11-24T00:07:10;99353.95;;;-1.48;100.00
59588;BME280;45412;54.472;18.464;2022-11-24T00:09:58;99353.66;;;-1.41;100.00
59588;BME280;45412;54.472;18.464;2022-11-24T00:12:46;99350.77;;;-1.43;100.00
59588;BME280;45412;54.472;18.464;2022-11-24T00:15:33;99346.75;;;-1.47;100.00
59588;BME280;45412;54.472;18.464;2022-11-24T00:18:21;99344.03;;;-1.53;100.00
59588;BME280;45412;54.472;18.464;2022-11-24T00:21:09;99343.52;;;-1.58;100.00
59588;BME280;45412;54.472;18.464;2022-11-24T00:23:56;99342.81;;;-1.62;100.00
59588;BME280;45412;54.472;18.464;2022-11-24T00:26:44;99344.55;;;-1.62;100.00
59588;BME280;45412;54.472;18.464;2022-11-24T00:29:31;99343.79;;;-1.60;100.00
59588;BME280;45412;54.472;18.464;2022-11-24T00:32:19;99349.17;;;-1.60;100.00
59588;BME280;45412;54.472;18.464;2022-11-24T00:35:07;99346.91;;;-1.64;100.00
59588;BME280;45412;54.472;18.464;2022-11-24T00:37:55;99346.17;;;-1.68;100.00
59588;BME280;45412;54.472;18.464;2022-11-24T00:40:43;99347.71;;;-1.72;100.00
59588;BME280;45412;54.472;18.464;2022-11-24T00:43:30;99357.58;;;-1.75;100.00
59588;BME280;45412;54.472;18.464;2022-11-24T00:46:19;99360.83;;;-1.74;100.00
59588;BME280;45412;54.472;18.464;2022-11-24T00:49:07;99364.77;;;-1.72;100.00
59588;BME280;45412;54.472;18.464;2022-11-24T00:51:55;99362.58;;;-1.74;100.00
59588;BME280;45412;54.472;18.464;2022-11-24T00:54:43;99371.02;;;-1.80;100.00
59588;BME280;45412;54.472;18.464;2022-11-24T00:57:34;99365.83;;;-1.86;100.00
59588;BME280;45412;54.472;18.464;2022-11-24T01:00:21;99369.59;;;-1.85;100.00
59588;BME280;45412;54.472;18.464;2022-11-24T01:03:09;99372.96;;;-1.82;100.00
59588;BME280;45412;54.472;18.464;2022-11-24T01:06:16;99372.61;;;-1.82;100.00
59588;BME280;45412;54.472;18.464;2022-11-24T01:09:04;99368.67;;;-1.79;100.00
59588;BME280;45412;54.472;18.464;2022-11-24T01:11:52;99370.05;;;-1.78;100.00
59588;BME280;45412;54.472;18.464;2022-11-24T01:14:48;99370.54;;;-1.77;100.00
59588;BME280;45412;54.472;18.464;2022-11-24T01:17:36;99369.29;;;-1.81;100.00
59588;BME280;45412;54.472;18.464;2022-11-24T01:20:23;99370.23;;;-1.84;100.00
59588;BME280;45412;54.472;18.464;2022-11-24T01:23:11;99370.58;;;-1.83;100.00
59588;BME280;45412;54.472;18.464;2022-11-24T01:26:03;99372.70;;;-1.80;100.00
59588;BME280;45412;54.472;18.464;2022-11-24T01:28:55;99379.70;;;-1.76;100.00
59588;BME280;45412;54.472;18.464;2022-11-24T01:31:43;99382.33;;;-1.72;100.00
59588;BME280;45412;54.472;18.464;2022-11-24T01:34:31;99380.45;;;-1.68;100.00
59588;BME280;45412;54.472;18.464;2022-11-24T01:37:19;99375.55;;;-1.67;100.00
59588;BME280;45412;54.472;18.464;2022-11-24T01:40:08;99372.85;;;-1.65;100.00
59588;BME280;45412;54.472;18.464;2022-11-24T01:42:56;99367.57;;;-1.63;100.00
59588;BME280;45412;54.472;18.464;2022-11-24T01:45:44;99366.35;;;-1.59;100.00
59588;BME280;45412;54.472;18.464;2022-11-24T01:48:40;99366.63;;;-1.57;100.00
59588;BME280;45412;54.472;18.464;2022-11-24T01:51:34;99367.50;;;-1.57;100.00
59588;BME280;45412;54.472;18.464;2022-11-24T01:54:28;99367.24;;;-1.55;100.00
59588;BME280;45412;54.472;18.464;2022-11-24T01:57:32;99370.65;;;-1.53;100.00
59588;BME280;45412;54.472;18.464;2022-11-24T02:00:22;99368.86;;;-1.52;100.00
59588;BME280;45412;54.472;18.464;2022-11-24T02:03:17;99372.71;;;-1.52;100.00
59588;BME280;45412;54.472;18.464;2022-11-24T02:06:13;99375.98;;;-1.52;100.00
59588;BME280;45412;54.472;18.464;2022-11-24T02:09:12;99378.20;;;-1.51;100.00
59588;BME280;45412;54.472;18.464;2022-11-24T02:12:03;99374.85;;;-1.49;100.00
59588;BME280;45412;54.472;18.464;2022-11-24T02:14:53;99374.55;;;-1.46;100.00
59588;BME280;45412;54.472;18.464;2022-11-24T02:17:42;99375.95;;;-1.42;100.00
59588;BME280;45412;54.472;18.464;2022-11-24T02:20:30;99371.21;;;-1.36;100.00
59588;BME280;45412;54.472;18.464;2022-11-24T02:26:54;99373.61;;;-1.26;100.00
59588;BME280;45412;54.472;18.464;2022-11-24T02:29:42;99373.44;;;-1.22;100.00
59588;BME280;45412;54.472;18.464;2022-11-24T02:32:32;99366.90;;;-1.24;99.87
59588;BME280;45412;54.472;18.464;2022-11-24T02:35:20;99364.97;;;-1.24;99.91
59588;BME280;45412;54.472;18.464;2022-11-24T02:38:12;99366.11;;;-1.22;99.97
59588;BME280;45412;54.472;18.464;2022-11-24T02:41:05;99374.14;;;-1.22;99.67
59588;BME280;45412;54.472;18.464;2022-11-24T02:43:57;99374.09;;;-1.26;99.45
59588;BME280;45412;54.472;18.464;2022-11-24T02:46:46;99367.95;;;-1.29;99.41
59588;BME280;45412;54.472;18.464;2022-11-24T02:49:34;99365.88;;;-1.29;99.86
59588;BME280;45412;54.472;18.464;2022-11-24T02:52:22;99370.73;;;-1.29;99.78
59588;BME280;45412;54.472;18.464;2022-11-24T02:55:10;99376.23;;;-1.31;99.51
59588;BME280;45412;54.472;18.464;2022-11-24T02:57:57;99379.58;;;-1.32;99.49
59588;BME280;45412;54.472;18.464;2022-11-24T03:00:46;99379.80;;;-1.33;99.59
59588;BME280;45412;54.472;18.464;2022-11-24T03:03:34;99380.85;;;-1.33;99.49
59588;BME280;45412;54.472;18.464;2022-11-24T03:06:22;99380.65;;;-1.37;99.31
59588;BME280;45412;54.472;18.464;2022-11-24T03:09:09;99382.52;;;-1.40;99.38
59588;BME280;45412;54.472;18.464;2022-11-24T03:11:58;99378.84;;;-1.40;99.63
59588;BME280;45412;54.472;18.464;2022-11-24T03:14:45;99377.02;;;-1.38;99.58
59588;BME280;45412;54.472;18.464;2022-11-24T03:17:33;99374.91;;;-1.37;99.80
59588;BME280;45412;54.472;18.464;2022-11-24T03:20:20;99374.52;;;-1.41;99.55
59588;BME280;45412;54.472;18.464;2022-11-24T03:23:08;99374.30;;;-1.44;99.42
59588;BME280;45412;54.472;18.464;2022-11-24T03:26:10;99376.55;;;-1.48;99.13
59588;BME280;45412;54.472;18.464;2022-11-24T03:28:58;99382.80;;;-1.48;99.76
59588;BME280;45412;54.472;18.464;2022-11-24T03:31:46;99379.80;;;-1.47;99.84
59588;BME280;45412;54.472;18.464;2022-11-24T03:34:33;99380.48;;;-1.51;99.35
59588;BME280;45412;54.472;18.464;2022-11-24T03:37:22;99375.95;;;-1.55;99.38
59588;BME280;45412;54.472;18.464;2022-11-24T03:40:10;99375.63;;;-1.56;99.56
59588;BME280;45412;54.472;18.464;2022-11-24T03:42:58;99381.23;;;-1.57;99.37
59588;BME280;45412;54.472;18.464;2022-11-24T03:45:47;99380.92;;;-1.58;99.41
59588;BME280;45412;54.472;18.464;2022-11-24T03:48:35;99384.22;;;-1.62;99.24
59588;BME280;45412;54.472;18.464;2022-11-24T03:51:23;99382.66;;;-1.62;99.44
59588;BME280;45412;54.472;18.464;2022-11-24T03:54:11;99390.64;;;-1.62;99.51
59588;BME280;45412;54.472;18.464;2022-11-24T03:56:58;99398.56;;;-1.59;99.38
59588;BME280;45412;54.472;18.464;2022-11-24T03:59:46;99394.55;;;-1.60;99.09
59588;BME280;45412;54.472;18.464;2022-11-24T04:02:34;99397.19;;;-1.60;99.21
59588;BME280;45412;54.472;18.464;2022-11-24T04:05:21;99394.82;;;-1.57;99.36
59588;BME280;45412;54.472;18.464;2022-11-24T04:08:12;99393.89;;;-1.51;99.72
59588;BME280;45412;54.472;18.464;2022-11-24T04:11:00;99399.15;;;-1.52;99.03
59588;BME280;45412;54.472;18.464;2022-11-24T04:13:48;99407.66;;;-1.52;99.10
59588;BME280;45412;54.472;18.464;2022-11-24T04:16:36;99409.65;;;-1.49;99.39
59588;BME280;45412;54.472;18.464;2022-11-24T04:19:24;99418.46;;;-1.48;99.30
59588;BME280;45412;54.472;18.464;2022-11-24T04:22:11;99427.98;;;-1.46;99.17
59588;BME280;45412;54.472;18.464;2022-11-24T04:24:59;99435.96;;;-1.46;99.00
59588;BME280;45412;54.472;18.464;2022-11-24T04:27:51;99437.11;;;-1.44;99.00
59588;BME280;45412;54.472;18.464;2022-11-24T04:30:39;99439.69;;;-1.43;98.74
59588;BME280;45412;54.472;18.464;2022-11-24T04:33:31;99438.41;;;-1.46;98.49
59588;BME280;45412;54.472;18.464;2022-11-24T04:36:19;99440.59;;;-1.48;98.67
59588;BME280;45412;54.472;18.464;2022-11-24T04:39:07;99439.41;;;-1.49;98.63
59588;BME280;45412;54.472;18.464;2022-11-24T04:42:13;99449.10;;;-1.52;98.37
59588;BME280;45412;54.472;18.464;2022-11-24T04:45:01;99453.56;;;-1.51;98.76
59588;BME280;45412;54.472;18.464;2022-11-24T04:47:49;99454.85;;;-1.48;98.85
59588;BME280;45412;54.472;18.464;2022-11-24T04:50:37;99459.67;;;-1.47;98.44
59588;BME280;45412;54.472;18.464;2022-11-24T04:53:26;99464.92;;;-1.52;98.10
59588;BME280;45412;54.472;18.464;2022-11-24T04:56:14;99461.73;;;-1.55;98.56
59588;BME280;45412;54.472;18.464;2022-11-24T04:59:01;99465.55;;;-1.55;98.82
59588;BME280;45412;54.472;18.464;2022-11-24T05:01:54;99466.14;;;-1.57;98.32
59588;BME280;45412;54.472;18.464;2022-11-24T05:04:43;99460.23;;;-1.61;98.16
59588;BME280;45412;54.472;18.464;2022-11-24T05:07:31;99452.41;;;-1.62;98.73
59588;BME280;45412;54.472;18.464;2022-11-24T05:10:21;99446.39;;;-1.59;98.84
59588;BME280;45412;54.472;18.464;2022-11-24T05:13:24;99441.52;;;-1.55;98.95
59588;BME280;45412;54.472;18.464;2022-11-24T05:16:11;99440.61;;;-1.49;98.69
59588;BME280;45412;54.472;18.464;2022-11-24T05:18:59;99440.71;;;-1.47;98.28
59588;BME280;45412;54.472;18.464;2022-11-24T05:21:47;99445.31;;;-1.44;98.27
59588;BME280;45412;54.472;18.464;2022-11-24T05:24:35;99447.83;;;-1.47;97.70
59588;BME280;45412;54.472;18.464;2022-11-24T05:27:23;99443.50;;;-1.52;97.55
59588;BME280;45412;54.472;18.464;2022-11-24T05:30:11;99453.07;;;-1.52;97.63
59588;BME280;45412;54.472;18.464;2022-11-24T05:33:05;99456.38;;;-1.52;97.59
59588;BME280;45412;54.472;18.464;2022-11-24T05:35:53;99456.42;;;-1.57;97.02
59588;BME280;45412;54.472;18.464;2022-11-24T05:38:41;99456.23;;;-1.62;97.17
59588;BME280;45412;54.472;18.464;2022-11-24T05:41:28;99461.64;;;-1.62;97.53
59588;BME280;45412;54.472;18.464;2022-11-24T05:44:16;99464.92;;;-1.62;97.54
59588;BME280;45412;54.472;18.464;2022-11-24T05:47:04;99462.02;;;-1.63;97.78
59588;BME280;45412;54.472;18.464;2022-11-24T05:49:51;99468.66;;;-1.64;97.91
59588;BME280;45412;54.472;18.464;2022-11-24T05:52:39;99473.76;;;-1.65;97.87
59588;BME280;45412;54.472;18.464;2022-11-24T05:55:27;99474.39;;;-1.68;97.55
59588;BME280;45412;54.472;18.464;2022-11-24T05:58:15;99472.04;;;-1.71;97.63
59588;BME280;45412;54.472;18.464;2022-11-24T06:01:06;99471.92;;;-1.68;98.18
59588;BME280;45412;54.472;18.464;2022-11-24T06:03:53;99467.15;;;-1.65;98.02
59588;BME280;45412;54.472;18.464;2022-11-24T06:06:41;99465.51;;;-1.63;98.35
59588;BME280;45412;54.472;18.464;2022-11-24T06:09:29;99460.97;;;-1.58;98.73
59588;BME280;45412;54.472;18.464;2022-11-24T06:12:17;99460.73;;;-1.52;98.59
59588;BME280;45412;54.472;18.464;2022-11-24T06:15:05;99459.17;;;-1.52;97.99
59588;BME280;45412;54.472;18.464;2022-11-24T06:17:54;99456.88;;;-1.56;97.72
59588;BME280;45412;54.472;18.464;2022-11-24T06:20:42;99462.13;;;-1.56;97.83
59588;BME280;45412;54.472;18.464;2022-11-24T06:23:49;99471.89;;;-1.57;97.66
59588;BME280;45412;54.472;18.464;2022-11-24T06:26:37;99464.23;;;-1.62;97.32
59588;BME280;45412;54.472;18.464;2022-11-24T06:29:24;99467.54;;;-1.71;96.89
59588;BME280;45412;54.472;18.464;2022-11-24T06:32:13;99482.33;;;-1.81;96.62
59588;BME280;45412;54.472;18.464;2022-11-24T06:35:00;99484.66;;;-1.83;97.08
59588;BME280;45412;54.472;18.464;2022-11-24T06:37:48;99486.41;;;-1.83;97.25
59588;BME280;45412;54.472;18.464;2022-11-24T06:40:36;99488.91;;;-1.85;97.37
59588;BME280;45412;54.472;18.464;2022-11-24T06:43:26;99487.04;;;-1.86;97.38
59588;BME280;45412;54.472;18.464;2022-11-24T06:46:14;99493.84;;;-1.87;97.52
59588;BME280;45412;54.472;18.464;2022-11-24T06:49:02;99498.20;;;-1.87;97.72
59588;BME280;45412;54.472;18.464;2022-11-24T06:51:50;99505.66;;;-1.86;97.54
59588;BME280;45412;54.472;18.464;2022-11-24T06:54:38;99506.14;;;-1.85;97.64
59588;BME280;45412;54.472;18.464;2022-11-24T06:57:26;99516.14;;;-1.83;97.71
59588;BME280;45412;54.472;18.464;2022-11-24T07:00:18;99525.48;;;-1.81;97.60
59588;BME280;45412;54.472;18.464;2022-11-24T07:03:05;99528.88;;;-1.79;97.83
59588;BME280;45412;54.472;18.464;2022-11-24T07:05:57;99527.84;;;-1.79;97.47
59588;BME280;45412;54.472;18.464;2022-11-24T07:08:45;99532.27;;;-1.81;97.57
59588;BME280;45412;54.472;18.464;2022-11-24T07:11:33;99533.30;;;-1.76;98.03
59588;BME280;45412;54.472;18.464;2022-11-24T07:14:24;99539.38;;;-1.71;97.92
59588;BME280;45412;54.472;18.464;2022-11-24T07:17:12;99544.94;;;-1.66;97.75
59588;BME280;45412;54.472;18.464;2022-11-24T07:20:00;99540.30;;;-1.63;97.51
59588;BME280;45412;54.472;18.464;2022-11-24T07:22:47;99534.38;;;-1.62;96.79
59588;BME280;45412;54.472;18.464;2022-11-24T07:25:34;99544.20;;;-1.60;97.21
59588;BME280;45412;54.472;18.464;2022-11-24T07:28:22;99545.98;;;-1.57;96.91
59588;BME280;45412;54.472;18.464;2022-11-24T07:31:17;99534.17;;;-1.52;97.35
59588;BME280;45412;54.472;18.464;2022-11-24T07:34:05;99543.29;;;-1.49;97.16
59588;BME280;45412;54.472;18.464;2022-11-24T07:36:52;99552.48;;;-1.48;96.93
59588;BME280;45412;54.472;18.464;2022-11-24T07:39:40;99548.38;;;-1.46;97.13
59588;BME280;45412;54.472;18.464;2022-11-24T07:42:28;99545.42;;;-1.41;96.98
59588;BME280;45412;54.472;18.464;2022-11-24T07:45:16;99546.38;;;-1.39;96.64
59588;BME280;45412;54.472;18.464;2022-11-24T07:48:04;99548.48;;;-1.34;96.42
59588;BME280;45412;54.472;18.464;2022-11-24T07:50:52;99547.84;;;-1.31;96.42
59588;BME280;45412;54.472;18.464;2022-11-24T07:53:44;99547.50;;;-1.31;96.04
59588;BME280;45412;54.472;18.464;2022-11-24T07:56:31;99551.33;;;-1.35;95.97
59588;BME280;45412;54.472;18.464;2022-11-24T07:59:19;99547.68;;;-1.36;96.03
59588;BME280;45412;54.472;18.464;2022-11-24T08:02:11;99542.48;;;-1.36;96.11
59588;BME280;45412;54.472;18.464;2022-11-24T08:04:59;99543.05;;;-1.38;96.23
59588;BME280;45412;54.472;18.464;2022-11-24T08:07:48;99539.21;;;-1.33;96.88
59588;BME280;45412;54.472;18.464;2022-11-24T08:10:35;99539.33;;;-1.26;97.04
59588;BME280;45412;54.472;18.464;2022-11-24T08:13:23;99537.89;;;-1.21;96.66
59588;BME280;45412;54.472;18.464;2022-11-24T08:16:13;99535.30;;;-1.16;96.69
59588;BME280;45412;54.472;18.464;2022-11-24T08:19:01;99530.92;;;-1.16;96.44
59588;BME280;45412;54.472;18.464;2022-11-24T08:21:49;99530.41;;;-1.11;96.61
59588;BME280;45412;54.472;18.464;2022-11-24T08:24:37;99532.05;;;-1.09;95.81
59588;BME280;45412;54.472;18.464;2022-11-24T08:27:24;99531.65;;;-1.03;95.87
59588;BME280;45412;54.472;18.464;2022-11-24T08:30:13;99531.68;;;-0.94;96.12
59588;BME280;45412;54.472;18.464;2022-11-24T08:33:00;99534.46;;;-0.86;95.74
59588;BME280;45412;54.472;18.464;2022-11-24T08:35:48;99533.77;;;-0.86;94.35
59588;BME280;45412;54.472;18.464;2022-11-24T08:38:37;99539.11;;;-0.89;94.15
59588;BME280;45412;54.472;18.464;2022-11-24T08:41:26;99547.81;;;-0.93;93.68
59588;BME280;45412;54.472;18.464;2022-11-24T08:44:14;99550.38;;;-0.96;94.31
59588;BME280;45412;54.472;18.464;2022-11-24T08:47:02;99548.53;;;-0.94;94.75
59588;BME280;45412;54.472;18.464;2022-11-24T08:49:49;99554.82;;;-0.94;94.34
59588;BME280;45412;54.472;18.464;2022-11-24T08:52:37;99560.52;;;-0.93;94.22
59588;BME280;45412;54.472;18.464;2022-11-24T08:55:25;99560.29;;;-0.91;94.60
59588;BME280;45412;54.472;18.464;2022-11-24T08:58:12;99559.35;;;-0.90;94.57
59588;BME280;45412;54.472;18.464;2022-11-24T09:01:18;99556.39;;;-0.90;94.65
59588;BME280;45412;54.472;18.464;2022-11-24T09:04:06;99551.16;;;-0.90;94.40
59588;BME280;45412;54.472;18.464;2022-11-24T09:06:53;99549.95;;;-0.85;94.85
59588;BME280;45412;54.472;18.464;2022-11-24T09:09:40;99553.40;;;-0.80;94.72
59588;BME280;45412;54.472;18.464;2022-11-24T09:12:28;99557.69;;;-0.73;94.76
59588;BME280;45412;54.472;18.464;2022-11-24T09:15:16;99561.65;;;-0.68;94.38
59588;BME280;45412;54.472;18.464;2022-11-24T09:18:05;99562.73;;;-0.69;93.95
59588;BME280;45412;54.472;18.464;2022-11-24T09:20:52;99563.47;;;-0.70;94.25
59588;BME280;45412;54.472;18.464;2022-11-24T09:23:48;99565.56;;;-0.70;94.20
59588;BME280;45412;54.472;18.464;2022-11-24T09:26:37;99565.77;;;-0.66;94.17
59588;BME280;45412;54.472;18.464;2022-11-24T09:29:34;99567.69;;;-0.57;94.52
59588;BME280;45412;54.472;18.464;2022-11-24T09:32:22;99566.51;;;-0.49;94.31
59588;BME280;45412;54.472;18.464;2022-11-24T09:35:10;99565.57;;;-0.52;92.80
59588;BME280;45412;54.472;18.464;2022-11-24T09:37:57;99565.63;;;-0.59;93.36
59588;BME280;45412;54.472;18.464;2022-11-24T09:40:45;99572.20;;;-0.57;93.55
59588;BME280;45412;54.472;18.464;2022-11-24T09:43:41;99574.74;;;-0.51;94.05
59588;BME280;45412;54.472;18.464;2022-11-24T09:56:28;99577.17;;;-0.46;92.90
59588;BME280;45412;54.472;18.464;2022-11-24T09:59:21;99579.23;;;-0.50;92.82
59588;BME280;45412;54.472;18.464;2022-11-24T10:02:10;99578.23;;;-0.46;93.21
59588;BME280;45412;54.472;18.464;2022-11-24T10:04:59;99574.00;;;-0.41;92.83
59588;BME280;45412;54.472;18.464;2022-11-24T10:08:10;99575.81;;;-0.47;92.12
59588;BME280;45412;54.472;18.464;2022-11-24T10:11:15;99582.20;;;-0.59;91.88
59588;BME280;45412;54.472;18.464;2022-11-24T10:14:56;99583.08;;;-0.63;92.46
59588;BME280;45412;54.472;18.464;2022-11-24T10:27:43;99573.38;;;-0.47;92.65
59588;BME280;45412;54.472;18.464;2022-11-24T10:30:31;99572.21;;;-0.48;92.74
59588;BME280;45412;54.472;18.464;2022-11-24T10:33:20;99569.42;;;-0.53;92.47
59588;BME280;45412;54.472;18.464;2022-11-24T10:36:48;99572.94;;;-0.54;92.92
59588;BME280;45412;54.472;18.464;2022-11-24T10:40:11;99565.45;;;-0.54;93.17
59588;BME280;45412;54.472;18.464;2022-11-24T10:43:20;99562.34;;;-0.51;93.54
59588;BME280;45412;54.472;18.464;2022-11-24T10:46:22;99562.51;;;-0.46;93.46
59588;BME280;45412;54.472;18.464;2022-11-24T10:49:21;99564.19;;;-0.40;93.41
59588;BME280;45412;54.472;18.464;2022-11-24T10:52:15;99569.23;;;-0.30;93.54
59588;BME280;45412;54.472;18.464;2022-11-24T10:55:05;99568.78;;;-0.20;93.43
59588;BME280;45412;54.472;18.464;2022-11-24T10:57:53;99572.34;;;-0.09;93.37
59588;BME280;45412;54.472;18.464;2022-11-24T11:00:40;99572.39;;;-0.06;91.78
59588;BME280;45412;54.472;18.464;2022-11-24T11:03:32;99578.71;;;-0.15;91.30
59588;BME280;45412;54.472;18.464;2022-11-24T11:06:26;99586.58;;;-0.20;91.82
59588;BME280;45412;54.472;18.464;2022-11-24T11:09:18;99593.74;;;-0.25;91.94
59588;BME280;45412;54.472;18.464;2022-11-24T11:12:18;99590.95;;;-0.33;91.86
59588;BME280;45412;54.472;18.464;2022-11-24T11:15:30;99587.95;;;-0.41;92.46
59588;BME280;45412;54.472;18.464;2022-11-24T11:18:19;99585.52;;;-0.41;92.81
59588;BME280;45412;54.472;18.464;2022-11-24T11:21:09;99585.53;;;-0.42;92.76
59588;BME280;45412;54.472;18.464;2022-11-24T11:24:15;99581.30;;;-0.49;92.47
59588;BME280;45412;54.472;18.464;2022-11-24T11:27:18;99579.77;;;-0.54;92.80
59588;BME280;45412;54.472;18.464;2022-11-24T11:33:29;99572.30;;;-0.55;93.19
59588;BME280;45412;54.472;18.464;2022-11-24T11:36:47;99577.15;;;-0.55;93.42
59588;BME280;45412;54.472;18.464;2022-11-24T11:39:42;99579.45;;;-0.51;93.50
59588;BME280;45412;54.472;18.464;2022-11-24T11:42:46;99572.59;;;-0.40;93.99
59588;BME280;45412;54.472;18.464;2022-11-24T11:46:01;99576.75;;;-0.31;93.30
59588;BME280;45412;54.472;18.464;2022-11-24T11:48:50;99574.17;;;-0.20;93.42
59588;BME280;45412;54.472;18.464;2022-11-24T11:52:10;99570.16;;;-0.11;92.94
59588;BME280;45412;54.472;18.464;2022-11-24T11:55:44;99578.54;;;-0.03;92.82
59588;BME280;45412;54.472;18.464;2022-11-24T12:05:00;99580.02;;;-0.13;91.24
59588;BME280;45412;54.472;18.464;2022-11-24T12:14:41;99578.73;;;-0.20;92.60
59588;BME280;45412;54.472;18.464;2022-11-24T12:17:40;99575.81;;;-0.17;92.88
59588;BME280;45412;54.472;18.464;2022-11-24T12:24:18;99582.38;;;-0.15;92.63
59588;BME280;45412;54.472;18.464;2022-11-24T12:31:06;99594.36;;;-0.19;92.34
59588;BME280;45412;54.472;18.464;2022-11-24T12:34:12;99594.17;;;-0.22;92.30
59588;BME280;45412;54.472;18.464;2022-11-24T12:37:55;99590.23;;;-0.28;92.30
59588;BME280;45412;54.472;18.464;2022-11-24T12:41:23;99592.67;;;-0.37;92.25
59588;BME280;45412;54.472;18.464;2022-11-24T12:50:44;99585.14;;;-0.59;93.49
59588;BME280;45412;54.472;18.464;2022-11-24T12:53:33;99589.85;;;-0.58;93.55
59588;BME280;45412;54.472;18.464;2022-11-24T12:56:41;99592.75;;;-0.61;93.32
59588;BME280;45412;54.472;18.464;2022-11-24T12:59:40;99594.88;;;-0.66;93.39
59588;BME280;45412;54.472;18.464;2022-11-24T13:08:39;99597.77;;;-0.70;94.19
59588;BME280;45412;54.472;18.464;2022-11-24T13:11:38;99600.17;;;-0.68;94.37
59588;BME280;45412;54.472;18.464;2022-11-24T13:14:31;99605.90;;;-0.63;94.29
59588;BME280;45412;54.472;18.464;2022-11-24T13:17:30;99605.73;;;-0.59;94.45
59588;BME280;45412;54.472;18.464;2022-11-24T13:20:39;99610.55;;;-0.57;94.04
59588;BME280;45412;54.472;18.464;2022-11-24T13:23:27;99614.10;;;-0.59;94.12
59588;BME280;45412;54.472;18.464;2022-11-24T13:29:34;99622.95;;;-0.71;94.00
59588;BME280;45412;54.472;18.464;2022-11-24T13:32:43;99618.35;;;-0.74;94.29
59588;BME280;45412;54.472;18.464;2022-11-24T13:35:30;99614.37;;;-0.75;94.43
59588;BME280;45412;54.472;18.464;2022-11-24T13:38:51;99614.41;;;-0.71;94.44
59588;BME280;45412;54.472;18.464;2022-11-24T13:44:42;99618.55;;;-0.62;94.60
59588;BME280;45412;54.472;18.464;2022-11-24T13:47:41;99620.79;;;-0.65;94.45
59588;BME280;45412;54.472;18.464;2022-11-24T13:53:51;99630.52;;;-0.69;94.80
59588;BME280;45412;54.472;18.464;2022-11-24T13:56:39;99637.00;;;-0.70;94.73
59588;BME280;45412;54.472;18.464;2022-11-24T13:59:33;99645.20;;;-0.75;94.72
59588;BME280;45412;54.472;18.464;2022-11-24T14:02:22;99648.07;;;-0.77;94.75
59588;BME280;45412;54.472;18.464;2022-11-24T14:05:20;99649.52;;;-0.79;94.94
59588;BME280;45412;54.472;18.464;2022-11-24T14:08:18;99655.30;;;-0.84;94.78
59588;BME280;45412;54.472;18.464;2022-11-24T14:11:13;99650.60;;;-0.89;94.89
59588;BME280;45412;54.472;18.464;2022-11-24T14:14:12;99648.73;;;-0.91;95.09
59588;BME280;45412;54.472;18.464;2022-11-24T14:20:21;99651.67;;;-0.90;95.51
59588;BME280;45412;54.472;18.464;2022-11-24T14:23:10;99651.95;;;-0.87;95.75
59588;BME280;45412;54.472;18.464;2022-11-24T14:25:57;99656.75;;;-0.86;95.79
59588;BME280;45412;54.472;18.464;2022-11-24T14:28:46;99652.08;;;-0.87;95.63
59588;BME280;45412;54.472;18.464;2022-11-24T14:31:34;99654.41;;;-0.93;95.27
59588;BME280;45412;54.472;18.464;2022-11-24T14:34:24;99658.08;;;-0.93;95.70
59588;BME280;45412;54.472;18.464;2022-11-24T14:37:12;99662.02;;;-0.92;95.57
59588;BME280;45412;54.472;18.464;2022-11-24T14:39:59;99668.65;;;-0.92;95.52
59588;BME280;45412;54.472;18.464;2022-11-24T14:42:49;99671.86;;;-0.89;95.49
59588;BME280;45412;54.472;18.464;2022-11-24T14:45:37;99673.98;;;-0.90;95.35
59588;BME280;45412;54.472;18.464;2022-11-24T14:48:48;99668.45;;;-0.91;95.61
59588;BME280;45412;54.472;18.464;2022-11-24T14:51:41;99667.30;;;-0.93;95.47
59588;BME280;45412;54.472;18.464;2022-11-24T14:54:30;99668.55;;;-0.94;95.42
59588;BME280;45412;54.472;18.464;2022-11-24T14:57:28;99676.50;;;-0.92;95.66
59588;BME280;45412;54.472;18.464;2022-11-24T15:00:30;99678.86;;;-0.90;95.78
59588;BME280;45412;54.472;18.464;2022-11-24T15:03:19;99673.38;;;-0.88;95.83
59588;BME280;45412;54.472;18.464;2022-11-24T15:06:17;99675.68;;;-0.84;95.70
59588;BME280;45412;54.472;18.464;2022-11-24T15:09:31;99680.50;;;-0.78;95.85
59588;BME280;45412;54.472;18.464;2022-11-24T15:12:44;99684.17;;;-0.74;95.20
59588;BME280;45412;54.472;18.464;2022-11-24T15:15:36;99691.30;;;-0.73;95.02
59588;BME280;45412;54.472;18.464;2022-11-24T15:18:46;99691.44;;;-0.72;94.99
59588;BME280;45412;54.472;18.464;2022-11-24T15:21:36;99700.02;;;-0.73;94.70
59588;BME280;45412;54.472;18.464;2022-11-24T15:24:23;99700.83;;;-0.76;94.69
59588;BME280;45412;54.472;18.464;2022-11-24T15:27:11;99699.48;;;-0.82;94.65
59588;BME280;45412;54.472;18.464;2022-11-24T15:29:59;99699.28;;;-0.87;94.70
59588;BME280;45412;54.472;18.464;2022-11-24T15:32:52;99704.11;;;-0.85;95.17
59588;BME280;45412;54.472;18.464;2022-11-24T15:35:42;99705.92;;;-0.82;95.48
59588;BME280;45412;54.472;18.464;2022-11-24T15:38:30;99706.75;;;-0.81;95.10
59588;BME280;45412;54.472;18.464;2022-11-24T15:41:19;99701.09;;;-0.79;95.30
59588;BME280;45412;54.472;18.464;2022-11-24T15:44:08;99701.70;;;-0.76;95.42
59588;BME280;45412;54.472;18.464;2022-11-24T15:46:56;99709.17;;;-0.76;94.94
59588;BME280;45412;54.472;18.464;2022-11-24T15:49:44;99709.14;;;-0.75;95.27
59588;BME280;45412;54.472;18.464;2022-11-24T15:52:31;99714.46;;;-0.77;94.88
59588;BME280;45412;54.472;18.464;2022-11-24T15:55:20;99714.83;;;-0.78;95.27
59588;BME280;45412;54.472;18.464;2022-11-24T15:58:11;99718.95;;;-0.76;95.42
59588;BME280;45412;54.472;18.464;2022-11-24T16:01:00;99721.06;;;-0.72;95.61
59588;BME280;45412;54.472;18.464;2022-11-24T16:03:48;99721.20;;;-0.71;95.22
59588;BME280;45412;54.472;18.464;2022-11-24T16:06:35;99714.30;;;-0.73;95.11
59588;BME280;45412;54.472;18.464;2022-11-24T16:09:23;99713.27;;;-0.74;95.25